sensor_id;sensor_type;location;lat;lon;timestamp;pressure;altitude;pressure_sealevel;temperature;humidity
11395;BME280;5753;54.402;10.220;2024-03-02T00:00:42;100637.06;;;7.23;93.57
11395;BME280;5753;54.402;10.220;2024-03-02T00:03:08;100633.59;;;7.24;92.81
11395;BME280;5753;54.402;10.220;2024-03-02T00:05:37;100633.78;;;7.18;93.19
11395;BME280;5753;54.402;10.220;2024-03-02T00:08:05;100632.78;;;7.22;93.42
11395;BME280;5753;54.402;10.220;2024-03-02T00:10:38;100624.06;;;7.27;93.43
11395;BME280;5753;54.402;10.220;2024-03-02T00:13:10;100624.03;;;7.29;93.12
11395;BME280;5753;54.402;10.220;2024-03-02T00:15:55;100624.19;;;7.24;93.25
11395;BME280;5753;54.402;10.220;2024-03-02T00:18:27;100614.88;;;7.20;92.70
11395;BME280;5753;54.402;10.220;2024-03-02T00:20:54;100614.25;;;7.12;93.22
11395;BME280;5753;54.402;10.220;2024-03-02T00:23:22;100610.84;;;7.12;92.76
11395;BME280;5753;54.402;10.220;2024-03-02T00:25:51;100606.56;;;7.12;92.79
11395;BME280;5753;54.402;10.220;2024-03-02T00:33:36;100618.66;;;7.09;93.01
11395;BME280;5753;54.402;10.220;2024-03-02T00:36:06;100610.03;;;7.11;92.82
11395;BME280;5753;54.402;10.220;2024-03-02T00:38:34;100605.72;;;7.12;92.50
11395;BME280;5753;54.402;10.220;2024-03-02T00:41:06;100596.50;;;7.06;92.63
11395;BME280;5753;54.402;10.220;2024-03-02T00:43:43;100588.41;;;7.18;92.44
11395;BME280;5753;54.402;10.220;2024-03-02T00:46:12;100599.56;;;7.17;92.53
11395;BME280;5753;54.402;10.220;2024-03-02T00:48:41;100591.00;;;7.17;92.25
11395;BME280;5753;54.402;10.220;2024-03-02T00:51:12;100594.28;;;7.22;92.25
11395;BME280;5753;54.402;10.220;2024-03-02T00:53:38;100591.63;;;7.25;92.01
11395;BME280;5753;54.402;10.220;2024-03-02T00:56:10;100597.78;;;7.19;92.02
11395;BME280;5753;54.402;10.220;2024-03-02T00:58:37;100587.53;;;7.19;92.39
11395;BME280;5753;54.402;10.220;2024-03-02T01:01:03;100586.69;;;7.19;92.43
11395;BME280;5753;54.402;10.220;2024-03-02T01:03:31;100586.56;;;7.22;92.33
11395;BME280;5753;54.402;10.220;2024-03-02T01:05:59;100590.06;;;7.21;92.13
11395;BME280;5753;54.402;10.220;2024-03-02T01:08:25;100583.28;;;7.18;92.44
11395;BME280;5753;54.402;10.220;2024-03-02T01:10:52;100573.09;;;7.15;92.44
11395;BME280;5753;54.402;10.220;2024-03-02T01:13:18;100574.00;;;7.14;92.40
11395;BME280;5753;54.402;10.220;2024-03-02T01:15:45;100572.41;;;7.10;92.81
11395;BME280;5753;54.402;10.220;2024-03-02T01:18:12;100570.63;;;7.12;92.87
11395;BME280;5753;54.402;10.220;2024-03-02T01:20:39;100571.38;;;7.16;92.47
11395;BME280;5753;54.402;10.220;2024-03-02T01:23:07;100561.13;;;7.16;92.33
11395;BME280;5753;54.402;10.220;2024-03-02T01:25:33;100563.59;;;7.17;92.78
11395;BME280;5753;54.402;10.220;2024-03-02T01:27:59;100564.59;;;7.13;92.60
11395;BME280;5753;54.402;10.220;2024-03-02T01:30:27;100565.41;;;7.15;93.20
11395;BME280;5753;54.402;10.220;2024-03-02T01:32:53;100569.72;;;7.13;93.11
11395;BME280;5753;54.402;10.220;2024-03-02T01:35:21;100563.75;;;7.13;93.04
11395;BME280;5753;54.402;10.220;2024-03-02T01:37:50;100565.59;;;7.09;93.70
11395;BME280;5753;54.402;10.220;2024-03-02T01:40:16;100558.84;;;7.07;93.98
11395;BME280;5753;54.402;10.220;2024-03-02T01:42:44;100566.53;;;7.07;93.40
11395;BME280;5753;54.402;10.220;2024-03-02T01:45:12;100564.84;;;7.06;93.75
11395;BME280;5753;54.402;10.220;2024-03-02T01:47:38;100567.44;;;7.04;93.60
11395;BME280;5753;54.402;10.220;2024-03-02T01:50:06;100564.00;;;7.05;93.65
11395;BME280;5753;54.402;10.220;2024-03-02T01:52:34;100565.69;;;7.06;93.79
11395;BME280;5753;54.402;10.220;2024-03-02T01:55:00;100559.75;;;7.04;94.10
11395;BME280;5753;54.402;10.220;2024-03-02T01:57:27;100564.75;;;7.09;93.76
11395;BME280;5753;54.402;10.220;2024-03-02T01:59:53;100560.41;;;7.11;93.38
11395;BME280;5753;54.402;10.220;2024-03-02T02:02:21;100562.06;;;7.12;93.31
11395;BME280;5753;54.402;10.220;2024-03-02T02:04:49;100567.19;;;7.12;93.34
11395;BME280;5753;54.402;10.220;2024-03-02T02:07:15;100569.72;;;7.13;93.34
11395;BME280;5753;54.402;10.220;2024-03-02T02:09:44;100560.47;;;7.08;93.96
11395;BME280;5753;54.402;10.220;2024-03-02T02:12:11;100569.00;;;7.10;93.84
11395;BME280;5753;54.402;10.220;2024-03-02T02:14:38;100556.06;;;7.13;93.47
11395;BME280;5753;54.402;10.220;2024-03-02T02:17:06;100564.59;;;7.13;93.04
11395;BME280;5753;54.402;10.220;2024-03-02T02:19:32;100562.19;;;7.09;93.54
11395;BME280;5753;54.402;10.220;2024-03-02T02:21:58;100555.22;;;7.12;93.75
11395;BME280;5753;54.402;10.220;2024-03-02T02:24:27;100566.53;;;7.07;93.33
11395;BME280;5753;54.402;10.220;2024-03-02T02:26:53;100566.53;;;7.07;93.61
11395;BME280;5753;54.402;10.220;2024-03-02T02:29:20;100562.31;;;7.04;93.32
11395;BME280;5753;54.402;10.220;2024-03-02T02:31:47;100558.94;;;7.02;93.79
11395;BME280;5753;54.402;10.220;2024-03-02T02:34:14;100565.03;;;6.99;93.85
11395;BME280;5753;54.402;10.220;2024-03-02T02:36:42;100562.59;;;6.95;93.50
11395;BME280;5753;54.402;10.220;2024-03-02T02:39:12;100559.31;;;6.90;94.32
11395;BME280;5753;54.402;10.220;2024-03-02T02:41:41;100552.50;;;6.89;94.09
11395;BME280;5753;54.402;10.220;2024-03-02T02:44:07;100549.97;;;6.87;94.13
11395;BME280;5753;54.402;10.220;2024-03-02T02:46:33;100557.63;;;6.89;94.27
11395;BME280;5753;54.402;10.220;2024-03-02T02:49:01;100553.47;;;6.85;94.29
11395;BME280;5753;54.402;10.220;2024-03-02T02:51:28;100557.03;;;6.81;94.29
11395;BME280;5753;54.402;10.220;2024-03-02T02:53:55;100551.09;;;6.79;94.40
11395;BME280;5753;54.402;10.220;2024-03-02T02:56:21;100545.94;;;6.80;94.11
11395;BME280;5753;54.402;10.220;2024-03-02T02:58:48;100554.47;;;6.81;94.23
11395;BME280;5753;54.402;10.220;2024-03-02T03:01:17;100543.31;;;6.82;94.13
11395;BME280;5753;54.402;10.220;2024-03-02T03:03:46;100544.97;;;6.83;93.92
11395;BME280;5753;54.402;10.220;2024-03-02T03:06:14;100548.44;;;6.82;94.00
11395;BME280;5753;54.402;10.220;2024-03-02T03:08:40;100549.38;;;6.79;94.04
11395;BME280;5753;54.402;10.220;2024-03-02T03:11:06;100546.81;;;6.79;94.23
11395;BME280;5753;54.402;10.220;2024-03-02T03:13:33;100544.19;;;6.81;94.34
11395;BME280;5753;54.402;10.220;2024-03-02T03:16:00;100539.09;;;6.79;94.15
11395;BME280;5753;54.402;10.220;2024-03-02T03:18:26;100543.50;;;6.76;94.37
11395;BME280;5753;54.402;10.220;2024-03-02T03:20:52;100540.09;;;6.75;94.32
11395;BME280;5753;54.402;10.220;2024-03-02T03:23:19;100537.47;;;6.77;94.57
11395;BME280;5753;54.402;10.220;2024-03-02T03:25:46;100534.97;;;6.75;94.21
11395;BME280;5753;54.402;10.220;2024-03-02T03:28:14;100529.81;;;6.75;93.92
11395;BME280;5753;54.402;10.220;2024-03-02T03:30:40;100533.28;;;6.74;94.27
11395;BME280;5753;54.402;10.220;2024-03-02T03:33:06;100538.50;;;6.71;94.02
11395;BME280;5753;54.402;10.220;2024-03-02T03:35:33;100536.91;;;6.67;94.12
11395;BME280;5753;54.402;10.220;2024-03-02T03:38:01;100537.81;;;6.65;93.77
11395;BME280;5753;54.402;10.220;2024-03-02T03:40:29;100540.41;;;6.65;93.82
11395;BME280;5753;54.402;10.220;2024-03-02T03:42:55;100547.31;;;6.63;94.31
11395;BME280;5753;54.402;10.220;2024-03-02T03:45:22;100550.78;;;6.60;94.29
11395;BME280;5753;54.402;10.220;2024-03-02T03:47:52;100545.03;;;6.52;94.07
11395;BME280;5753;54.402;10.220;2024-03-02T03:50:18;100536.53;;;6.50;94.30
11395;BME280;5753;54.402;10.220;2024-03-02T03:52:45;100541.81;;;6.45;94.19
11395;BME280;5753;54.402;10.220;2024-03-02T03:55:11;100538.38;;;6.46;94.18
11395;BME280;5753;54.402;10.220;2024-03-02T03:57:39;100538.25;;;6.49;94.38
11395;BME280;5753;54.402;10.220;2024-03-02T04:00:07;100532.16;;;6.53;94.47
11395;BME280;5753;54.402;10.220;2024-03-02T04:02:36;100540.78;;;6.51;94.08
11395;BME280;5753;54.402;10.220;2024-03-02T04:05:02;100546.81;;;6.50;94.19
11395;BME280;5753;54.402;10.220;2024-03-02T04:07:31;100534.84;;;6.49;94.19
11395;BME280;5753;54.402;10.220;2024-03-02T04:10:00;100536.59;;;6.48;94.52
11395;BME280;5753;54.402;10.220;2024-03-02T04:12:26;100538.47;;;6.43;94.38
11395;BME280;5753;54.402;10.220;2024-03-02T04:14:52;100544.50;;;6.41;94.41
11395;BME280;5753;54.402;10.220;2024-03-02T04:17:19;100546.09;;;6.45;94.89
11395;BME280;5753;54.402;10.220;2024-03-02T04:19:46;100546.97;;;6.44;94.94
11395;BME280;5753;54.402;10.220;2024-03-02T04:22:13;100542.75;;;6.43;94.56
11395;BME280;5753;54.402;10.220;2024-03-02T04:24:39;100547.09;;;6.39;94.44
11395;BME280;5753;54.402;10.220;2024-03-02T04:27:06;100547.16;;;6.38;95.15
11395;BME280;5753;54.402;10.220;2024-03-02T04:29:33;100548.03;;;6.37;94.51
11395;BME280;5753;54.402;10.220;2024-03-02T04:31:59;100550.56;;;6.38;94.95
11395;BME280;5753;54.402;10.220;2024-03-02T04:34:28;100560.88;;;6.35;94.78
11395;BME280;5753;54.402;10.220;2024-03-02T04:36:54;100555.69;;;6.38;95.24
11395;BME280;5753;54.402;10.220;2024-03-02T04:39:20;100558.19;;;6.40;94.92
11395;BME280;5753;54.402;10.220;2024-03-02T04:41:47;100558.25;;;6.38;95.16
11395;BME280;5753;54.402;10.220;2024-03-02T04:44:14;100559.00;;;6.42;94.90
11395;BME280;5753;54.402;10.220;2024-03-02T04:46:40;100554.72;;;6.42;94.56
11395;BME280;5753;54.402;10.220;2024-03-02T04:49:06;100554.72;;;6.42;94.48
11395;BME280;5753;54.402;10.220;2024-03-02T04:51:35;100552.09;;;6.44;94.39
11395;BME280;5753;54.402;10.220;2024-03-02T04:54:02;100552.16;;;6.42;94.82
11395;BME280;5753;54.402;10.220;2024-03-02T04:56:28;100548.75;;;6.42;94.38
11395;BME280;5753;54.402;10.220;2024-03-02T04:58:58;100554.66;;;6.44;94.57
11395;BME280;5753;54.402;10.220;2024-03-02T05:01:24;100550.50;;;6.40;94.74
11395;BME280;5753;54.402;10.220;2024-03-02T05:03:50;100547.94;;;6.40;94.78
11395;BME280;5753;54.402;10.220;2024-03-02T05:06:17;100554.78;;;6.39;95.08
11395;BME280;5753;54.402;10.220;2024-03-02T05:08:44;100553.91;;;6.40;94.51
11395;BME280;5753;54.402;10.220;2024-03-02T05:11:10;100541.94;;;6.41;94.85
11395;BME280;5753;54.402;10.220;2024-03-02T05:14:08;100535.91;;;6.43;94.95
11395;BME280;5753;54.402;10.220;2024-03-02T05:16:35;100537.53;;;6.46;94.35
11395;BME280;5753;54.402;10.220;2024-03-02T05:19:02;100528.97;;;6.45;94.81
11395;BME280;5753;54.402;10.220;2024-03-02T05:21:30;100522.09;;;6.47;94.42
11395;BME280;5753;54.402;10.220;2024-03-02T05:23:56;100530.66;;;6.46;94.67
11395;BME280;5753;54.402;10.220;2024-03-02T05:26:22;100521.38;;;6.42;94.83
11395;BME280;5753;54.402;10.220;2024-03-02T05:28:48;100533.38;;;6.42;94.88
11395;BME280;5753;54.402;10.220;2024-03-02T05:31:17;100534.28;;;6.39;95.01
11395;BME280;5753;54.402;10.220;2024-03-02T05:33:44;100529.97;;;6.41;94.43
11395;BME280;5753;54.402;10.220;2024-03-02T05:36:10;100529.97;;;6.41;94.89
11395;BME280;5753;54.402;10.220;2024-03-02T05:38:37;100521.41;;;6.41;94.79
11395;BME280;5753;54.402;10.220;2024-03-02T05:41:03;100520.66;;;6.39;94.42
11395;BME280;5753;54.402;10.220;2024-03-02T05:43:30;100518.09;;;6.39;94.48
11395;BME280;5753;54.402;10.220;2024-03-02T05:45:56;100518.97;;;6.38;94.75
11395;BME280;5753;54.402;10.220;2024-03-02T05:48:23;100525.78;;;6.39;94.73
11395;BME280;5753;54.402;10.220;2024-03-02T05:50:50;100524.09;;;6.38;94.93
11395;BME280;5753;54.402;10.220;2024-03-02T05:53:17;100530.97;;;6.36;94.88
11395;BME280;5753;54.402;10.220;2024-03-02T05:55:45;100536.06;;;6.37;94.80
11395;BME280;5753;54.402;10.220;2024-03-02T05:58:11;100536.09;;;6.36;94.66
11395;BME280;5753;54.402;10.220;2024-03-02T06:00:52;100539.53;;;6.35;94.59
11395;BME280;5753;54.402;10.220;2024-03-02T06:03:18;100542.94;;;6.35;95.12
11395;BME280;5753;54.402;10.220;2024-03-02T06:05:44;100543.81;;;6.34;95.01
11395;BME280;5753;54.402;10.220;2024-03-02T06:08:16;100537.88;;;6.34;95.00
11395;BME280;5753;54.402;10.220;2024-03-02T06:10:46;100537.03;;;6.33;95.16
11395;BME280;5753;54.402;10.220;2024-03-02T06:13:12;100534.41;;;6.35;95.26
11395;BME280;5753;54.402;10.220;2024-03-02T06:15:38;100553.97;;;6.39;94.88
11395;BME280;5753;54.402;10.220;2024-03-02T06:18:06;100560.75;;;6.40;95.03
11395;BME280;5753;54.402;10.220;2024-03-02T06:20:33;100557.41;;;6.38;94.83
11395;BME280;5753;54.402;10.220;2024-03-02T06:23:00;100562.56;;;6.38;94.76
11395;BME280;5753;54.402;10.220;2024-03-02T06:25:26;100571.03;;;6.40;94.76
11395;BME280;5753;54.402;10.220;2024-03-02T06:27:52;100564.16;;;6.40;94.83
11395;BME280;5753;54.402;10.220;2024-03-02T06:30:18;100570.13;;;6.42;94.89
11395;BME280;5753;54.402;10.220;2024-03-02T06:32:45;100569.31;;;6.40;94.72
11395;BME280;5753;54.402;10.220;2024-03-02T06:35:11;100567.59;;;6.41;95.35
11395;BME280;5753;54.402;10.220;2024-03-02T06:37:39;100559.84;;;6.42;95.26
11395;BME280;5753;54.402;10.220;2024-03-02T06:40:08;100563.25;;;6.43;95.20
11395;BME280;5753;54.402;10.220;2024-03-02T06:42:35;100564.09;;;6.43;95.28
11395;BME280;5753;54.402;10.220;2024-03-02T06:45:02;100565.75;;;6.44;94.69
11395;BME280;5753;54.402;10.220;2024-03-02T06:47:28;100563.16;;;6.46;94.89
11395;BME280;5753;54.402;10.220;2024-03-02T06:49:55;100565.63;;;6.49;94.86
11395;BME280;5753;54.402;10.220;2024-03-02T06:52:23;100563.97;;;6.48;95.13
11395;BME280;5753;54.402;10.220;2024-03-02T06:54:50;100563.03;;;6.50;94.53
11395;BME280;5753;54.402;10.220;2024-03-02T06:57:16;100564.72;;;6.51;94.53
11395;BME280;5753;54.402;10.220;2024-03-02T06:59:44;100554.38;;;6.54;94.44
11395;BME280;5753;54.402;10.220;2024-03-02T07:02:10;100561.16;;;6.57;94.22
11395;BME280;5753;54.402;10.220;2024-03-02T07:04:37;100553.38;;;6.59;94.53
11395;BME280;5753;54.402;10.220;2024-03-02T07:07:06;100557.66;;;6.60;94.54
11395;BME280;5753;54.402;10.220;2024-03-02T07:09:33;100558.47;;;6.60;94.14
11395;BME280;5753;54.402;10.220;2024-03-02T07:11:59;100558.44;;;6.62;93.91
11395;BME280;5753;54.402;10.220;2024-03-02T07:14:27;100560.00;;;6.67;94.53
11395;BME280;5753;54.402;10.220;2024-03-02T07:17:13;100562.50;;;6.69;94.15
11395;BME280;5753;54.402;10.220;2024-03-02T07:19:39;100564.13;;;6.73;93.67
11395;BME280;5753;54.402;10.220;2024-03-02T07:22:09;100558.16;;;6.72;93.23
11395;BME280;5753;54.402;10.220;2024-03-02T07:24:42;100566.59;;;6.76;93.84
11395;BME280;5753;54.402;10.220;2024-03-02T07:27:13;100565.66;;;6.78;93.24
11395;BME280;5753;54.402;10.220;2024-03-02T07:29:41;100565.66;;;6.78;92.99
11395;BME280;5753;54.402;10.220;2024-03-02T07:32:09;100575.78;;;6.83;93.19
11395;BME280;5753;54.402;10.220;2024-03-02T07:34:36;100568.06;;;6.83;92.96
11395;BME280;5753;54.402;10.220;2024-03-02T07:37:03;100573.00;;;6.90;93.40
11395;BME280;5753;54.402;10.220;2024-03-02T07:39:30;100569.59;;;6.90;92.49
11395;BME280;5753;54.402;10.220;2024-03-02T07:41:58;100576.22;;;6.97;93.05
11395;BME280;5753;54.402;10.220;2024-03-02T07:44:25;100577.91;;;6.98;92.60
11395;BME280;5753;54.402;10.220;2024-03-02T07:46:51;100582.81;;;7.06;92.62
11395;BME280;5753;54.402;10.220;2024-03-02T07:49:18;100580.94;;;7.11;92.49
11395;BME280;5753;54.402;10.220;2024-03-02T07:51:45;100580.94;;;7.11;91.61
11395;BME280;5753;54.402;10.220;2024-03-02T07:54:13;100585.72;;;7.21;91.40
11395;BME280;5753;54.402;10.220;2024-03-02T07:56:39;100579.53;;;7.28;91.86
11395;BME280;5753;54.402;10.220;2024-03-02T07:59:09;100581.75;;;7.40;90.92
11395;BME280;5753;54.402;10.220;2024-03-02T08:01:35;100584.16;;;7.45;89.71
11395;BME280;5753;54.402;10.220;2024-03-02T08:04:02;100589.75;;;7.58;89.74
11395;BME280;5753;54.402;10.220;2024-03-02T08:06:30;100585.13;;;7.67;89.35
11395;BME280;5753;54.402;10.220;2024-03-02T08:09:00;100580.28;;;7.84;89.38
11395;BME280;5753;54.402;10.220;2024-03-02T08:11:27;100583.66;;;7.86;88.44
11395;BME280;5753;54.402;10.220;2024-03-02T08:13:55;100584.44;;;7.89;88.38
11395;BME280;5753;54.402;10.220;2024-03-02T08:16:22;100577.19;;;8.00;87.54
11395;BME280;5753;54.402;10.220;2024-03-02T08:18:49;100574.81;;;8.18;87.39
11395;BME280;5753;54.402;10.220;2024-03-02T08:21:18;100578.91;;;8.24;86.91
11395;BME280;5753;54.402;10.220;2024-03-02T08:23:47;100580.59;;;8.25;86.53
11395;BME280;5753;54.402;10.220;2024-03-02T08:26:13;100573.78;;;8.24;86.07
11395;BME280;5753;54.402;10.220;2024-03-02T08:28:40;100572.16;;;8.21;85.72
11395;BME280;5753;54.402;10.220;2024-03-02T08:31:09;100577.03;;;8.29;85.29
11395;BME280;5753;54.402;10.220;2024-03-02T08:33:36;100571.16;;;8.25;84.73
11395;BME280;5753;54.402;10.220;2024-03-02T08:36:02;100573.31;;;8.38;85.12
11395;BME280;5753;54.402;10.220;2024-03-02T08:38:29;100595.69;;;8.36;84.52
11395;BME280;5753;54.402;10.220;2024-03-02T08:40:55;100607.50;;;8.41;84.77
11395;BME280;5753;54.402;10.220;2024-03-02T08:43:23;100613.34;;;8.46;84.05
11395;BME280;5753;54.402;10.220;2024-03-02T08:45:51;100619.16;;;8.51;83.92
11395;BME280;5753;54.402;10.220;2024-03-02T08:48:18;100627.72;;;8.52;83.47
11395;BME280;5753;54.402;10.220;2024-03-02T08:50:46;100619.09;;;8.53;83.65
11395;BME280;5753;54.402;10.220;2024-03-02T08:53:13;100616.34;;;8.57;82.60
11395;BME280;5753;54.402;10.220;2024-03-02T08:55:45;100611.66;;;8.68;83.03
11395;BME280;5753;54.402;10.220;2024-03-02T08:58:12;100610.56;;;8.76;82.41
11395;BME280;5753;54.402;10.220;2024-03-02T09:00:40;100614.63;;;8.81;82.18
11395;BME280;5753;54.402;10.220;2024-03-02T09:03:07;100627.34;;;8.86;81.82
11395;BME280;5753;54.402;10.220;2024-03-02T09:05:33;100622.84;;;8.91;81.28
11395;BME280;5753;54.402;10.220;2024-03-02T09:08:00;100633.53;;;9.03;81.92
11395;BME280;5753;54.402;10.220;2024-03-02T09:10:27;100633.06;;;9.15;80.55
11395;BME280;5753;54.402;10.220;2024-03-02T09:12:54;100634.50;;;9.24;80.59
11395;BME280;5753;54.402;10.220;2024-03-02T09:15:20;100635.31;;;9.46;79.58
11395;BME280;5753;54.402;10.220;2024-03-02T09:17:48;100625.66;;;9.73;80.09
11395;BME280;5753;54.402;10.220;2024-03-02T09:20:16;100627.69;;;9.87;78.04
11395;BME280;5753;54.402;10.220;2024-03-02T09:22:44;100633.16;;;9.99;77.56
11395;BME280;5753;54.402;10.220;2024-03-02T09:25:14;100634.81;;;10.22;77.44
11395;BME280;5753;54.402;10.220;2024-03-02T09:27:43;100629.59;;;10.24;76.97
11395;BME280;5753;54.402;10.220;2024-03-02T09:30:13;100631.47;;;10.40;75.17
11395;BME280;5753;54.402;10.220;2024-03-02T09:32:40;100627.91;;;10.43;74.83
11395;BME280;5753;54.402;10.220;2024-03-02T09:35:08;100630.44;;;10.44;74.66
11395;BME280;5753;54.402;10.220;2024-03-02T09:37:39;100637.19;;;10.47;73.52
11395;BME280;5753;54.402;10.220;2024-03-02T09:40:06;100636.78;;;10.56;73.73
11395;BME280;5753;54.402;10.220;2024-03-02T09:42:32;100641.91;;;10.58;72.49
11395;BME280;5753;54.402;10.220;2024-03-02T09:44:59;100637.28;;;10.45;72.03
11395;BME280;5753;54.402;10.220;2024-03-02T09:47:27;100630.44;;;10.83;72.79
11395;BME280;5753;54.402;10.220;2024-03-02T09:49:55;100640.03;;;10.80;71.52
11395;BME280;5753;54.402;10.220;2024-03-02T09:52:23;100637.41;;;10.81;70.94
11395;BME280;5753;54.402;10.220;2024-03-02T09:54:50;100633.22;;;10.79;70.88
11395;BME280;5753;54.402;10.220;2024-03-02T09:57:18;100630.91;;;11.10;71.51
11395;BME280;5753;54.402;10.220;2024-03-02T09:59:46;100626.63;;;11.28;69.36
11395;BME280;5753;54.402;10.220;2024-03-02T10:02:14;100612.56;;;11.52;69.03
11395;BME280;5753;54.402;10.220;2024-03-02T10:04:41;100619.81;;;11.63;68.33
11395;BME280;5753;54.402;10.220;2024-03-02T10:07:19;100622.09;;;11.69;67.47
11395;BME280;5753;54.402;10.220;2024-03-02T10:09:48;100625.09;;;11.79;66.80
11395;BME280;5753;54.402;10.220;2024-03-02T10:12:17;100621.53;;;11.98;67.07
11395;BME280;5753;54.402;10.220;2024-03-02T10:14:47;100619.53;;;11.86;66.27
11395;BME280;5753;54.402;10.220;2024-03-02T10:17:17;100617.56;;;11.74;66.14
11395;BME280;5753;54.402;10.220;2024-03-02T10:19:44;100626.19;;;11.56;67.28
11395;BME280;5753;54.402;10.220;2024-03-02T10:22:11;100617.81;;;11.87;66.73
11395;BME280;5753;54.402;10.220;2024-03-02T10:24:43;100627.66;;;11.61;66.87
11395;BME280;5753;54.402;10.220;2024-03-02T10:27:29;100632.38;;;11.34;67.22
11395;BME280;5753;54.402;10.220;2024-03-02T10:29:57;100633.47;;;11.48;68.37
11395;BME280;5753;54.402;10.220;2024-03-02T10:32:25;100632.72;;;11.46;67.66
11395;BME280;5753;54.402;10.220;2024-03-02T10:34:53;100626.19;;;11.56;67.27
11395;BME280;5753;54.402;10.220;2024-03-02T10:37:27;100621.03;;;11.56;68.07
11395;BME280;5753;54.402;10.220;2024-03-02T10:39:55;100615.22;;;11.51;68.67
11395;BME280;5753;54.402;10.220;2024-03-02T10:42:25;100623.00;;;11.68;68.05
11395;BME280;5753;54.402;10.220;2024-03-02T10:44:53;100625.16;;;11.77;68.09
11395;BME280;5753;54.402;10.220;2024-03-02T10:47:20;100617.41;;;11.77;66.48
11395;BME280;5753;54.402;10.220;2024-03-02T10:49:52;100614.34;;;11.69;66.63
11395;BME280;5753;54.402;10.220;2024-03-02T10:52:20;100622.94;;;11.69;67.42
11395;BME280;5753;54.402;10.220;2024-03-02T10:54:50;100618.56;;;11.53;66.66
11395;BME280;5753;54.402;10.220;2024-03-02T10:57:22;100618.25;;;11.77;67.42
11395;BME280;5753;54.402;10.220;2024-03-02T10:59:55;100622.44;;;11.97;65.98
11395;BME280;5753;54.402;10.220;2024-03-02T11:02:26;100626.25;;;12.07;65.93
11395;BME280;5753;54.402;10.220;2024-03-02T11:04:55;100627.38;;;12.36;65.12
11395;BME280;5753;54.402;10.220;2024-03-02T11:07:23;100632.56;;;12.36;64.76
11395;BME280;5753;54.402;10.220;2024-03-02T11:10:01;100625.78;;;12.16;65.19
11395;BME280;5753;54.402;10.220;2024-03-02T11:13:05;100620.75;;;12.48;65.34
11395;BME280;5753;54.402;10.220;2024-03-02T11:15:35;100620.38;;;12.71;64.69
11395;BME280;5753;54.402;10.220;2024-03-02T11:18:07;100631.69;;;12.86;63.83
11395;BME280;5753;54.402;10.220;2024-03-02T11:20:39;100619.88;;;12.80;62.66
11395;BME280;5753;54.402;10.220;2024-03-02T11:23:09;100627.25;;;12.72;63.37
11395;BME280;5753;54.402;10.220;2024-03-02T11:25:38;100625.41;;;12.90;62.48
11395;BME280;5753;54.402;10.220;2024-03-02T11:28:08;100626.56;;;12.84;61.89
11395;BME280;5753;54.402;10.220;2024-03-02T11:31:03;100628.88;;;12.73;62.09
11395;BME280;5753;54.402;10.220;2024-03-02T11:33:31;100633.94;;;12.76;62.29
11395;BME280;5753;54.402;10.220;2024-03-02T11:35:58;100634.72;;;13.10;62.27
11395;BME280;5753;54.402;10.220;2024-03-02T11:38:28;100630.91;;;13.17;61.55
11395;BME280;5753;54.402;10.220;2024-03-02T11:40:57;100629.97;;;13.49;61.25
11395;BME280;5753;54.402;10.220;2024-03-02T11:43:27;100624.00;;;13.63;60.65
11395;BME280;5753;54.402;10.220;2024-03-02T11:45:58;100633.59;;;13.76;59.70
11395;BME280;5753;54.402;10.220;2024-03-02T11:48:26;100625.13;;;14.18;59.30
11395;BME280;5753;54.402;10.220;2024-03-02T11:51:00;100639.41;;;13.66;58.19
11395;BME280;5753;54.402;10.220;2024-03-02T11:53:28;100634.31;;;13.64;58.88
11395;BME280;5753;54.402;10.220;2024-03-02T11:55:58;100629.34;;;13.75;58.32
11395;BME280;5753;54.402;10.220;2024-03-02T11:58:25;100623.81;;;13.81;57.88
11395;BME280;5753;54.402;10.220;2024-03-02T12:00:54;100628.38;;;13.92;59.13
11395;BME280;5753;54.402;10.220;2024-03-02T12:03:24;100629.88;;;13.96;58.71
11395;BME280;5753;54.402;10.220;2024-03-02T12:05:57;100634.97;;;13.98;57.87
11395;BME280;5753;54.402;10.220;2024-03-02T12:08:25;100632.19;;;14.01;58.31
11395;BME280;5753;54.402;10.220;2024-03-02T12:11:01;100626.72;;;14.35;58.06
11395;BME280;5753;54.402;10.220;2024-03-02T12:13:37;100629.47;;;14.62;56.58
11395;BME280;5753;54.402;10.220;2024-03-02T12:16:04;100634.19;;;14.55;55.38
11395;BME280;5753;54.402;10.220;2024-03-02T12:18:31;100623.44;;;14.47;56.61
11395;BME280;5753;54.402;10.220;2024-03-02T12:20:58;100630.69;;;14.26;56.54
11395;BME280;5753;54.402;10.220;2024-03-02T12:23:25;100630.84;;;14.53;56.69
11395;BME280;5753;54.402;10.220;2024-03-02T12:25:53;100634.66;;;14.62;55.52
11395;BME280;5753;54.402;10.220;2024-03-02T12:28:20;100627.41;;;14.67;56.07
11395;BME280;5753;54.402;10.220;2024-03-02T12:30:47;100636.22;;;14.36;55.71
11395;BME280;5753;54.402;10.220;2024-03-02T12:33:15;100628.81;;;14.28;57.18
11395;BME280;5753;54.402;10.220;2024-03-02T12:35:42;100627.38;;;14.39;56.83
11395;BME280;5753;54.402;10.220;2024-03-02T12:38:09;100628.53;;;14.19;57.00
11395;BME280;5753;54.402;10.220;2024-03-02T12:40:40;100628.38;;;14.22;58.11
11395;BME280;5753;54.402;10.220;2024-03-02T12:43:09;100630.16;;;14.35;58.40
11395;BME280;5753;54.402;10.220;2024-03-02T12:45:38;100627.72;;;14.18;57.75
11395;BME280;5753;54.402;10.220;2024-03-02T12:48:05;100634.66;;;14.18;58.41
11395;BME280;5753;54.402;10.220;2024-03-02T12:50:34;100639.19;;;14.14;58.76
11395;BME280;5753;54.402;10.220;2024-03-02T12:53:03;100634.56;;;13.89;58.63
11395;BME280;5753;54.402;10.220;2024-03-02T12:55:31;100628.34;;;13.78;59.11
11395;BME280;5753;54.402;10.220;2024-03-02T12:57:58;100632.41;;;13.82;59.50
11395;BME280;5753;54.402;10.220;2024-03-02T13:00:26;100636.50;;;13.86;59.42
11395;BME280;5753;54.402;10.220;2024-03-02T13:02:56;100633.84;;;13.87;59.50
11395;BME280;5753;54.402;10.220;2024-03-02T13:05:32;100630.13;;;13.91;59.35
11395;BME280;5753;54.402;10.220;2024-03-02T13:08:01;100630.38;;;13.57;59.50